»·PEaware :: SWA604 KTUS-KDEN

SWA604 :: KTUS-KDEN

FLIGHT INFORMATION

Flight Status: Arrived
Operator:
Southwest Airlines
More flights by this operator :: More flights under this callsign
Pilot: Tristan Z. (4790)
Aircraft: BOEING 737-700
(B737)
More flights by this aircraft type
Origin: KTUS Tucson Intl
United States
Destination: KDEN Denver Intl
United States
More flights between these airports :: More routes between these airports
Route: +BURRO4 NOCHI SSO J104 ONM GNDLA TBARR1
File this flight plan on PilotEdge
Remarks:
Altitude:
(Current/Filed)
39,000ft
Speed:
(Current/Filed)
459kts
Departed: 13-Nov-20 09:29 PM
Arrived: 13-Nov-20 11:00 PM
Distance/Time
Traveled:
555nm/1:31
Distance/Time
To Go:
Arrived

Flight Plot

Page will automatically refresh every two minutes.

Flight plan parsing failed; only flown route is shown


Map Options




Map Legend


Flown Route
Filed Route
Departure Airport
Arrival Airport
Navaid (VOR, NDB)
Fix

Horizontal Profiles

Position Reports

Time Latitude Longitude Heading Altitude Ground
Speed
13-Nov-20 21:14 32.118875 -110.937556 38 2651ft 0kts
13-Nov-20 21:15 32.118875 -110.937556 38 2651ft 0kts
13-Nov-20 21:16 32.118875 -110.937556 38 2651ft 0kts
13-Nov-20 21:17 32.118875 -110.937556 38 2650ft 0kts
13-Nov-20 21:18 32.118875 -110.937556 38 2650ft 0kts
13-Nov-20 21:19 32.118875 -110.937556 38 2650ft 0kts
13-Nov-20 21:20 32.118875 -110.937556 38 2650ft 0kts
13-Nov-20 21:21 32.118875 -110.937556 38 2651ft 0kts
13-Nov-20 21:22 32.118473 -110.937955 40 2651ft 2kts
13-Nov-20 21:23 32.118379 -110.938049 39 2651ft 0kts
13-Nov-20 21:24 32.118446 -110.938057 324 2651ft 1kts
13-Nov-20 21:25 32.119923 -110.941333 316 2650ft 18kts
13-Nov-20 21:26 32.124647 -110.946915 317 2651ft 0kts
13-Nov-20 21:27 32.124667 -110.947096 207 2651ft 2kts
13-Nov-20 21:28 32.121170 -110.945347 135 2651ft 79kts
13-Nov-20 21:29 32.092503 -110.909134 136 4674ft 177kts
13-Nov-20 21:30 32.049344 -110.860911 137 7050ft 247kts
13-Nov-20 21:31 31.997324 -110.801706 137 10224ft 283kts
13-Nov-20 21:32 31.941393 -110.722457 115 12904ft 345kts
13-Nov-20 21:33 31.917001 -110.608828 104 16178ft 373kts
13-Nov-20 21:34 31.899290 -110.484750 91 19154ft 402kts
13-Nov-20 21:35 31.919712 -110.352780 78 21799ft 430kts
13-Nov-20 21:36 31.947315 -110.210590 79 24264ft 452kts
13-Nov-20 21:37 31.975544 -110.063446 80 26431ft 473kts
13-Nov-20 21:38 32.004943 -109.909430 80 28425ft 493kts
13-Nov-20 21:39 32.040346 -109.750794 68 30267ft 514kts
13-Nov-20 21:40 32.108461 -109.601221 60 32401ft 521kts
13-Nov-20 21:41 32.179666 -109.452015 60 34390ft 524kts
13-Nov-20 21:43 32.250408 -109.303605 58 36387ft 520kts
13-Nov-20 21:44 32.344642 -109.176786 41 37972ft 517kts
13-Nov-20 21:45 32.449140 -109.057572 40 38915ft 528kts
13-Nov-20 21:46 32.557182 -108.933558 40 39134ft 556kts
13-Nov-20 21:47 32.667972 -108.805670 41 39170ft 554kts
13-Nov-20 21:48 32.778272 -108.678187 39 39199ft 554kts
13-Nov-20 21:49 32.888531 -108.550279 40 39209ft 557kts
13-Nov-20 21:50 32.998418 -108.422342 39 39212ft 550kts
13-Nov-20 21:51 33.102159 -108.301118 41 39192ft 501kts
13-Nov-20 21:52 33.200647 -108.185711 40 39187ft 501kts
13-Nov-20 21:53 33.299348 -108.068979 41 39181ft 499kts
13-Nov-20 21:54 33.397811 -107.952784 41 39153ft 500kts
13-Nov-20 21:55 33.496158 -107.836225 41 39144ft 496kts
13-Nov-20 21:56 33.594642 -107.719119 41 39140ft 501kts
13-Nov-20 21:57 33.693081 -107.601648 41 39142ft 500kts
13-Nov-20 21:57 33.775061 -107.503575 41 39143ft 502kts
13-Nov-20 21:59 33.889197 -107.366596 41 39140ft 497kts
13-Nov-20 21:59 33.970899 -107.268195 41 39138ft 501kts
13-Nov-20 22:00 34.069143 -107.149582 42 39138ft 499kts
13-Nov-20 22:02 34.183380 -107.010833 42 39133ft 504kts
13-Nov-20 22:02 34.267821 -106.909561 33 39138ft 525kts
13-Nov-20 22:03 34.397343 -106.833860 3 39138ft 514kts
13-Nov-20 22:04 34.535167 -106.816618 347 39135ft 487kts
13-Nov-20 22:06 34.695245 -106.813800 347 39133ft 501kts
13-Nov-20 22:06 34.811864 -106.811681 346 39137ft 502kts
13-Nov-20 22:08 34.972962 -106.808376 350 39136ft 479kts
13-Nov-20 22:08 35.079500 -106.806531 353 39139ft 452kts
13-Nov-20 22:09 35.206738 -106.804174 354 39136ft 460kts
13-Nov-20 22:10 35.334152 -106.801946 353 39137ft 460kts
13-Nov-20 22:11 35.462236 -106.799495 353 39137ft 460kts
13-Nov-20 22:12 35.589881 -106.797017 354 39136ft 463kts
13-Nov-20 22:13 35.718566 -106.794660 352 39122ft 474kts
13-Nov-20 22:14 35.851582 -106.792104 352 39113ft 479kts
13-Nov-20 22:15 35.984437 -106.789444 353 39113ft 481kts
13-Nov-20 22:16 36.117747 -106.786837 352 39116ft 481kts
13-Nov-20 22:17 36.250893 -106.784406 352 39109ft 479kts
13-Nov-20 22:18 36.383733 -106.781750 353 39110ft 479kts
13-Nov-20 22:19 36.515896 -106.779235 353 39112ft 479kts
13-Nov-20 22:20 36.649317 -106.776558 352 39112ft 476kts
13-Nov-20 22:21 36.782216 -106.770059 1 39128ft 489kts
13-Nov-20 22:22 36.915795 -106.733196 5 39117ft 494kts
13-Nov-20 22:23 37.048295 -106.696109 5 39113ft 483kts
13-Nov-20 22:24 37.176447 -106.659987 4 39117ft 470kts
13-Nov-20 22:25 37.304592 -106.623858 5 39111ft 473kts
13-Nov-20 22:26 37.432481 -106.587669 5 39113ft 470kts
13-Nov-20 22:27 37.559217 -106.551629 5 39115ft 468kts
13-Nov-20 22:28 37.686801 -106.515307 4 39102ft 473kts
13-Nov-20 22:29 37.814253 -106.478641 5 39075ft 468kts
13-Nov-20 22:30 37.941601 -106.442185 4 39044ft 474kts
13-Nov-20 22:31 38.068734 -106.405594 4 39022ft 471kts
13-Nov-20 22:32 38.196089 -106.368902 4 39022ft 472kts
13-Nov-20 22:33 38.323750 -106.332098 5 38991ft 469kts
13-Nov-20 22:34 38.450616 -106.295090 6 38997ft 471kts
13-Nov-20 22:35 38.576366 -106.257586 9 38522ft 459kts
13-Nov-20 22:36 38.690486 -106.172449 38 35978ft 499kts
13-Nov-20 22:37 38.781496 -106.039048 46 32027ft 507kts
13-Nov-20 22:38 38.869177 -105.904470 46 29438ft 485kts
13-Nov-20 22:39 38.952832 -105.774526 46 27267ft 460kts
13-Nov-20 22:40 39.034838 -105.647012 47 25209ft 462kts
13-Nov-20 22:41 39.113371 -105.524376 47 23197ft 435kts
13-Nov-20 22:42 39.189689 -105.403880 48 21152ft 436kts
13-Nov-20 22:43 39.261905 -105.288788 47 19843ft 392kts
13-Nov-20 22:44 39.341917 -105.210130 25 18552ft 359kts
13-Nov-20 22:45 39.423983 -105.149717 25 17075ft 348kts
13-Nov-20 22:46 39.503629 -105.090753 25 15945ft 334kts
13-Nov-20 22:47 39.573047 -105.023643 39 15064ft 333kts
13-Nov-20 22:48 39.641176 -104.944188 39 14099ft 333kts
13-Nov-20 22:49 39.708721 -104.867775 32 13118ft 319kts
13-Nov-20 22:50 39.786813 -104.840942 357 12154ft 294kts
13-Nov-20 22:51 39.867733 -104.839585 356 11160ft 287kts
13-Nov-20 22:52 39.944217 -104.835369 358 9964ft 272kts
13-Nov-20 22:53 40.015002 -104.822512 38 8621ft 261kts
13-Nov-20 22:54 40.022635 -104.739073 116 7564ft 238kts
13-Nov-20 22:55 39.987450 -104.675447 167 7026ft 207kts
13-Nov-20 22:56 39.939323 -104.686817 177 6439ft 157kts
13-Nov-20 22:57 39.905387 -104.686702 180 5613ft 128kts
13-Nov-20 22:58 39.881728 -104.687050 183 5442ft 63kts
13-Nov-20 22:59 39.874587 -104.684899 184 5442ft 6kts
13-Nov-20 23:00 39.871558 -104.683830 180 5442ft 21kts
13-Nov-20 23:01 39.865564 -104.683917 178 5442ft 22kts
13-Nov-20 23:02 39.864136 -104.678481 91 5442ft 17kts
13-Nov-20 23:03 39.864073 -104.671749 105 5442ft 18kts
13-Nov-20 23:04 39.863598 -104.671611 211 5442ft 0kts

Navigation Log

Ident Type
Flight plan parsing failed, navigation log unavailable